createdAt,value
2023-01-25T00:03:55.373Z,1029.3
2023-01-25T00:10:01.432Z,1029.2
2023-01-25T00:16:07.775Z,1029.3
2023-01-25T00:22:13.927Z,1029.3
2023-01-25T00:28:20.316Z,1029.3
2023-01-25T00:34:26.324Z,1029.3
2023-01-25T00:40:32.300Z,1029.2
2023-01-25T00:46:38.260Z,1029.2
2023-01-25T00:52:43.600Z,1029.1
2023-01-25T00:58:49.803Z,1029.1
2023-01-25T01:04:56.069Z,1029.1
2023-01-25T01:11:01.994Z,1029.2
2023-01-25T01:17:08.375Z,1029.3
2023-01-25T01:23:14.126Z,1029.2
2023-01-25T01:29:19.952Z,1029.2
2023-01-25T01:35:26.302Z,1029.1
2023-01-25T01:41:32.292Z,1029
2023-01-25T01:47:38.074Z,1029
2023-01-25T01:53:43.217Z,1029.1
2023-01-25T01:59:49.210Z,1029
2023-01-25T02:05:54.783Z,1029
2023-01-25T02:12:00.787Z,1029
2023-01-25T02:18:06.754Z,1029
2023-01-25T02:24:13.201Z,1029
2023-01-25T02:30:19.009Z,1029
2023-01-25T02:36:24.882Z,1029
2023-01-25T02:42:30.527Z,1029
2023-01-25T02:48:36.044Z,1028.9
2023-01-25T02:54:42.020Z,1028.8
2023-01-25T03:00:47.920Z,1028.8
2023-01-25T03:06:53.482Z,1028.8
2023-01-25T03:12:59.336Z,1028.7
2023-01-25T03:19:05.343Z,1028.7
2023-01-25T03:25:12.330Z,1028.6
2023-01-25T03:31:18.274Z,1028.6
2023-01-25T03:37:24.089Z,1028.6
2023-01-25T03:43:30.049Z,1028.7
2023-01-25T03:49:36.051Z,1028.6
2023-01-25T03:55:41.843Z,1028.6
2023-01-25T04:01:47.611Z,1028.6
2023-01-25T04:07:54.005Z,1028.6
2023-01-25T04:13:59.563Z,1028.6
2023-01-25T04:20:05.601Z,1028.6
2023-01-25T04:26:11.332Z,1028.5
2023-01-25T04:32:17.653Z,1028.4
2023-01-25T04:38:24.009Z,1028.5
2023-01-25T04:44:29.652Z,1028.4
2023-01-25T04:50:35.644Z,1028.4
2023-01-25T04:56:41.421Z,1028.3
2023-01-25T05:02:47.886Z,1028.2
2023-01-25T05:08:54.213Z,1028.1
2023-01-25T05:15:00.116Z,1028.1
2023-01-25T05:21:06.406Z,1028.1
2023-01-25T05:27:12.238Z,1028
2023-01-25T05:33:18.134Z,1028
2023-01-25T05:39:23.914Z,1028
2023-01-25T05:45:29.894Z,1028
2023-01-25T05:51:35.885Z,1028
2023-01-25T05:57:41.645Z,1028
2023-01-25T06:03:47.868Z,1028
2023-01-25T06:09:53.923Z,1027.9
2023-01-25T06:16:00.297Z,1027.9
2023-01-25T06:22:06.400Z,1027.9
2023-01-25T06:28:12.177Z,1027.8
2023-01-25T06:34:18.160Z,1027.8
2023-01-25T06:40:23.900Z,1027.8
2023-01-25T06:46:29.982Z,1027.8
2023-01-25T06:52:36.093Z,1027.7
2023-01-25T06:58:42.334Z,1027.6
2023-01-25T07:04:47.653Z,1027.5
2023-01-25T07:10:53.411Z,1027.4
2023-01-25T07:17:01.089Z,1027.5
2023-01-25T07:23:08.246Z,1027.4
2023-01-25T07:29:14.120Z,1027.4
2023-01-25T07:35:20.003Z,1027.4
2023-01-25T07:41:26.638Z,1027.4
2023-01-25T07:47:32.852Z,1027.5
2023-01-25T07:53:41.205Z,1027.4
2023-01-25T07:59:47.212Z,1027.4
2023-01-25T08:05:53.607Z,1027.4
2023-01-25T08:11:59.878Z,1027.5
2023-01-25T08:18:05.777Z,1027.5
2023-01-25T08:24:12.032Z,1027.4
2023-01-25T08:30:20.805Z,1027.4
2023-01-25T08:36:26.994Z,1027.3
2023-01-25T08:42:32.766Z,1027.3
2023-01-25T08:48:38.842Z,1027.2
2023-01-25T08:54:44.731Z,1027.2
2023-01-25T09:00:50.291Z,1027.2
2023-01-25T09:06:56.293Z,1027.2
2023-01-25T09:13:02.413Z,1027.1
2023-01-25T09:19:08.679Z,1027
2023-01-25T09:25:15.045Z,1027
2023-01-25T09:31:25.214Z,1027
2023-01-25T09:37:33.175Z,1027.1
2023-01-25T09:43:38.728Z,1027
2023-01-25T09:49:44.778Z,1027
2023-01-25T09:55:50.883Z,1027
2023-01-25T10:01:57.233Z,1027
2023-01-25T10:08:03.274Z,1026.8
2023-01-25T10:14:09.536Z,1026.8
2023-01-25T10:20:15.670Z,1026.7
2023-01-25T10:26:22.018Z,1026.7
2023-01-25T10:32:28.027Z,1026.7
2023-01-25T10:38:33.973Z,1026.5
2023-01-25T10:44:40.187Z,1026.5
2023-01-25T10:50:46.885Z,1026.5
2023-01-25T10:56:52.762Z,1026.4
2023-01-25T11:02:58.997Z,1026.3
2023-01-25T11:09:05.198Z,1026.2
2023-01-25T11:15:10.884Z,1026.1
2023-01-25T11:21:16.958Z,1025.9
2023-01-25T11:27:22.654Z,1025.8
2023-01-25T11:33:28.842Z,1025.8
2023-01-25T11:39:36.079Z,1025.7
2023-01-25T11:45:41.813Z,1025.6
2023-01-25T11:51:48.908Z,1025.5
2023-01-25T11:57:58.300Z,1025.4
2023-01-25T12:04:04.304Z,1025.2
2023-01-25T12:10:11.009Z,1025.1
2023-01-25T12:16:16.972Z,1025
2023-01-25T12:22:22.837Z,1024.9
2023-01-25T12:28:29.012Z,1024.8
2023-01-25T12:34:35.011Z,1024.7
2023-01-25T12:40:40.971Z,1024.6
2023-01-25T12:46:47.650Z,1024.6
2023-01-25T12:52:53.441Z,1024.5
2023-01-25T12:58:59.756Z,1024.4
2023-01-25T13:05:05.928Z,1024.4
2023-01-25T13:11:11.724Z,1024.4
2023-01-25T13:17:17.689Z,1024.3
2023-01-25T13:23:23.532Z,1024.3
2023-01-25T13:29:29.644Z,1024.3
2023-01-25T13:35:35.837Z,1024.3
2023-01-25T13:41:41.812Z,1024.3
2023-01-25T13:47:47.777Z,1024.2
2023-01-25T13:53:53.572Z,1024.1
2023-01-25T14:00:11.155Z,1024
2023-01-25T14:06:18.440Z,1024
2023-01-25T14:12:24.012Z,1024
2023-01-25T14:18:30.046Z,1023.9
2023-01-25T14:24:35.971Z,1023.9
2023-01-25T14:30:42.165Z,1023.9
2023-01-25T14:36:47.955Z,1023.8
2023-01-25T14:42:53.482Z,1023.8
2023-01-25T14:48:59.689Z,1023.6
2023-01-25T14:55:05.762Z,1023.6
2023-01-25T15:01:11.704Z,1023.7
2023-01-25T15:07:20.159Z,1023.7
2023-01-25T15:13:26.094Z,1023.7
2023-01-25T15:19:32.051Z,1023.7
2023-01-25T15:25:38.015Z,1023.5
2023-01-25T15:31:44.124Z,1023.4
2023-01-25T15:37:51.425Z,1023.4
2023-01-25T15:43:57.214Z,1023.3
2023-01-25T15:50:03.604Z,1023.3
2023-01-25T15:56:09.164Z,1023.3
2023-01-25T16:02:15.542Z,1023.3
2023-01-25T16:08:21.735Z,1023.1
2023-01-25T16:14:27.724Z,1023.1
2023-01-25T16:20:33.562Z,1023.1
2023-01-25T16:26:39.699Z,1023.1
2023-01-25T16:32:45.686Z,1023.1
2023-01-25T16:38:51.847Z,1023
2023-01-25T16:44:57.636Z,1022.9
2023-01-25T16:51:03.618Z,1022.8
2023-01-25T16:57:22.304Z,1022.8
2023-01-25T17:03:28.285Z,1022.8
2023-01-25T17:09:34.454Z,1022.7
2023-01-25T17:15:40.139Z,1022.6
2023-01-25T17:21:46.217Z,1022.5
2023-01-25T17:27:52.252Z,1022.4
2023-01-25T17:33:57.963Z,1022.4
2023-01-25T17:40:04.246Z,1022.4
2023-01-25T17:46:09.752Z,1022.4
2023-01-25T17:52:15.594Z,1022.3
2023-01-25T17:58:21.501Z,1022.3
2023-01-25T18:04:27.078Z,1022.2
2023-01-25T18:10:32.849Z,1022.1
2023-01-25T18:16:38.651Z,1022
2023-01-25T18:22:44.578Z,1021.9
2023-01-25T18:28:52.412Z,1021.9
2023-01-25T18:34:57.851Z,1021.9
2023-01-25T18:41:03.960Z,1021.9
2023-01-25T18:47:09.565Z,1021.8
2023-01-25T18:53:15.115Z,1021.7
2023-01-25T18:59:21.291Z,1021.6
2023-01-25T19:05:27.279Z,1021.6
2023-01-25T19:11:33.323Z,1021.5
2023-01-25T19:17:38.837Z,1021.4
2023-01-25T19:23:44.620Z,1021.3
2023-01-25T19:29:50.856Z,1021.2
2023-01-25T19:35:57.301Z,1021.1
2023-01-25T19:42:03.572Z,1021.1
2023-01-25T19:48:09.778Z,1021.1
2023-01-25T19:54:16.047Z,1021
2023-01-25T20:00:22.133Z,1020.9
2023-01-25T20:06:27.762Z,1020.9
2023-01-25T20:12:33.695Z,1020.8
2023-01-25T20:18:39.651Z,1020.7
2023-01-25T20:24:45.095Z,1020.7
2023-01-25T20:30:51.049Z,1020.6
2023-01-25T20:36:57.202Z,1020.6
2023-01-25T20:43:03.203Z,1020.7
2023-01-25T20:49:09.375Z,1020.5
2023-01-25T20:55:15.635Z,1020.5
2023-01-25T21:01:21.959Z,1020.4
2023-01-25T21:07:27.934Z,1020.4
2023-01-25T21:13:33.703Z,1020.4
2023-01-25T21:19:39.896Z,1020.3
2023-01-25T21:25:46.160Z,1020.2
2023-01-25T21:31:51.717Z,1020.2
2023-01-25T21:37:57.403Z,1020.2
2023-01-25T21:44:03.409Z,1020.1
2023-01-25T21:50:09.789Z,1020.1
2023-01-25T21:56:16.594Z,1020
2023-01-25T22:02:22.793Z,1019.9
2023-01-25T22:08:28.165Z,1019.9
2023-01-25T22:14:34.136Z,1019.8
2023-01-25T22:20:40.324Z,1019.8
2023-01-25T22:26:46.414Z,1019.7
2023-01-25T22:32:52.682Z,1019.6
2023-01-25T22:38:58.256Z,1019.6
2023-01-25T22:45:03.638Z,1019.6
2023-01-25T22:51:09.810Z,1019.5
2023-01-25T22:57:16.203Z,1019.4
2023-01-25T23:03:22.427Z,1019.3
2023-01-25T23:09:28.379Z,1019.2
2023-01-25T23:15:33.793Z,1019.2
2023-01-25T23:21:39.723Z,1019.1
2023-01-25T23:27:45.692Z,1019
2023-01-25T23:33:51.554Z,1019
2023-01-25T23:39:57.251Z,1018.9
2023-01-25T23:46:03.312Z,1018.9
2023-01-25T23:52:09.411Z,1018.8
2023-01-25T23:58:15.810Z,1018.8
